Time;durP1;ratioP1;P1;durP2;ratioP2;P2;SDS_P1;SDS_P2;PMS_P1;PMS_P2;Temp;Humidity;BMP_temperature;BMP_pressure;BME280_temperature;BME280_humidity;BME280_pressure;Samples;Min_cycle;Max_cycle;Signal;HPM_P1;HPM_P2
2022/01/30 00:00:50;;;;;;;;;;;;;;;;;;5030507;28;19960;-66
2022/01/30 00:03:17;;;;;;;;;;;;;;;;;;5029002;28;19947;-64
2022/01/30 00:05:44;;;;;;;;;;;;;;;;;;5029706;28;20387;-64
2022/01/30 00:08:11;;;;;;;;;;;;;;;;;;5031425;28;19991;-65
2022/01/30 00:10:40;;;;;;;;;;;;;;;;;;5031422;28;19932;-65
2022/01/30 00:13:09;;;;;;;;;;;;;;;;;;5029155;28;19929;-65
2022/01/30 00:15:41;;;;;;;;;;;;;;;;;;5031987;28;20015;-65
2022/01/30 00:18:28;;;;;;;;;;;;;;;;;;5032749;28;19987;-65
2022/01/30 00:21:08;;;;;;;;;;;;;;;;;;5022346;28;20406;-65
2022/01/30 00:23:40;;;;;;;;;;;;;;;;;;5029569;28;19925;-65
2022/01/30 00:26:08;;;;;;;;;;;;;;;;;;5029958;28;20361;-66
2022/01/30 00:28:36;;;;;;;;;;;;;;;;;;5031630;28;19929;-65
2022/01/30 00:31:04;;;;;;;;;;;;;;;;;;5032870;28;20328;-65
2022/01/30 00:33:31;;;;;;;;;;;;;;;;;;5032008;28;19980;-65
2022/01/30 00:35:58;;;;;;;;;;;;;;;;;;5027255;28;19933;-65
2022/01/30 00:38:26;;;;;;;;;;;;;;;;;;5031737;28;19948;-64
2022/01/30 00:40:53;;;;;;;;;;;;;;;;;;5032256;28;20019;-64
2022/01/30 00:43:20;;;;;;;;;;;;;;;;;;5028418;28;19925;-64
2022/01/30 00:45:47;;;;;;;;;;;;;;;;;;5031004;28;19925;-64
2022/01/30 00:48:14;;;;;;;;;;;;;;;;;;5031088;28;19925;-66
2022/01/30 00:50:41;;;;;;;;;;;;;;;;;;5028656;28;19929;-65
2022/01/30 00:53:08;;;;;;;;;;;;;;;;;;5020632;28;19948;-65
2022/01/30 00:55:35;;;;;;;;;;;;;;;;;;5020993;28;19925;-65
2022/01/30 00:58:02;;;;;;;;;;;;;;;;;;5019017;28;19925;-65
2022/01/30 01:00:29;;;;;;;;;;;;;;;;;;5029755;28;19933;-65
2022/01/30 01:02:56;;;;;;;;;;;;;;;;;;5029540;28;19940;-65
2022/01/30 01:05:23;;;;;;;;;;;;;;;;;;5027797;28;19933;-65
2022/01/30 01:07:52;;;;;;;;;;;;;;;;;;5029944;28;19963;-64
2022/01/30 01:10:28;;;;;;;;;;;;;;;;;;5029268;28;19972;-64
2022/01/30 01:13:07;;;;;;;;;;;;;;;;;;5029872;28;19925;-65
2022/01/30 01:23:50;;;;;;;;;;;;;;;;;;5015909;28;19968;-65
2022/01/30 01:26:17;;;;;;;;;;;;;;;;;;5030055;28;19956;-64
2022/01/30 01:28:44;;;;;;;;;;;;;;;;;;5026640;28;19933;-65
2022/01/30 01:31:11;;;;;;;;;;;;;;;;;;5027541;28;19955;-65
2022/01/30 01:33:48;;;;;;;;;;;;;;;;;;5029851;28;19976;-65
2022/01/30 01:36:15;;;;;;;;;;;;;;;;;;5058218;22;19924;-64
2022/01/30 01:38:42;;;;;;;;;;;;;;;;;;5040501;28;19924;-64
2022/01/30 01:41:10;;;;;;;;;;;;;;;;;;5051311;28;19936;-65
2022/01/30 01:43:36;;;;;;;;;;;;;;;;;;5042679;28;19926;-65
2022/01/30 01:46:11;;;;;;;;;;;;;;;;;;5046770;28;19931;-64
2022/01/30 01:48:38;;;;;;;;;;;;;;;;;;5045971;28;19924;-65
2022/01/30 01:51:08;;;;;;;;;;;;;;;;;;5046455;28;20059;-65
2022/01/30 01:53:35;;;;;;;;;;;;;;;;;;5041699;28;19929;-64
2022/01/30 01:56:02;;;;;;;;;;;;;;;;;;5042557;28;19928;-65
2022/01/30 01:58:28;;;;;;;;;;;;;;;;;;5040945;28;20175;-65
2022/01/30 02:00:55;;;;;;;;;;;;;;;;;;5036783;28;20008;-65
2022/01/30 02:03:23;;;;;;;;;;;;;;;;;;5049846;28;19925;-64
2022/01/30 02:05:54;;;;;;;;;;;;;;;;;;5041457;28;19929;-64
2022/01/30 02:08:30;;;;;;;;;;;;;;;;;;5040564;28;19925;-65
2022/01/30 02:11:01;;;;;;;;;;;;;;;;;;5031285;28;20423;-64
2022/01/30 02:24:35;;;;;;;;;;;;;;;;;;5043738;28;19940;-64
2022/01/30 02:27:02;;;;;;;;;;;;;;;;;;5044134;28;20330;-64
2022/01/30 02:29:29;;;;;;;;;;;;;;;;;;5044352;28;19925;-64
2022/01/30 02:31:58;;;;;;;;;;;;;;;;;;5041993;28;19929;-64
2022/01/30 02:34:25;;;;;;;;;;;;;;;;;;5038587;28;20019;-64
2022/01/30 02:36:52;;;;;;;;;;;;;;;;;;5049539;28;19929;-64
2022/01/30 02:39:19;;;;;;;;;;;;;;;;;;5043419;28;19925;-64
2022/01/30 02:41:46;;;;;;;;;;;;;;;;;;5039730;28;19925;-64
2022/01/30 02:44:18;;;;;;;;;;;;;;;;;;5038525;28;19925;-64
2022/01/30 02:46:47;;;;;;;;;;;;;;;;;;5050802;28;19932;-64
2022/01/30 02:49:28;;;;;;;;;;;;;;;;;;5035664;28;19924;-64
2022/01/30 02:51:57;;;;;;;;;;;;;;;;;;5046464;28;20016;-64
2022/01/30 02:54:24;;;;;;;;;;;;;;;;;;5046956;28;19933;-65
2022/01/30 02:56:51;;;;;;;;;;;;;;;;;;5050636;28;19929;-65
2022/01/30 02:59:18;;;;;;;;;;;;;;;;;;5041104;28;19963;-65
2022/01/30 03:01:45;;;;;;;;;;;;;;;;;;5047633;28;19929;-65
2022/01/30 03:04:12;;;;;;;;;;;;;;;;;;5046479;28;20035;-64
2022/01/30 03:06:39;;;;;;;;;;;;;;;;;;5040589;28;19933;-65
2022/01/30 03:09:06;;;;;;;;;;;;;;;;;;5035022;28;19932;-64
2022/01/30 03:11:33;;;;;;;;;;;;;;;;;;5038154;28;19925;-64
2022/01/30 03:14:00;;;;;;;;;;;;;;;;;;5042777;28;19947;-64
2022/01/30 03:16:27;;;;;;;;;;;;;;;;;;5040705;28;19970;-65
2022/01/30 03:18:53;;;;;;;;;;;;;;;;;;5042100;28;19929;-64
2022/01/30 03:21:20;;;;;;;;;;;;;;;;;;5037757;28;19925;-64
2022/01/30 03:23:47;;;;;;;;;;;;;;;;;;5046980;28;20333;-67
2022/01/30 03:26:15;;;;;;;;;;;;;;;;;;5044344;28;19924;-64
2022/01/30 03:28:43;;;;;;;;;;;;;;;;;;5048978;28;19933;-64
2022/01/30 03:31:12;;;;;;;;;;;;;;;;;;5044117;28;20386;-64
2022/01/30 03:33:39;;;;;;;;;;;;;;;;;;5045925;28;19933;-65
2022/01/30 03:36:06;;;;;;;;;;;;;;;;;;5045692;28;20386;-65
2022/01/30 03:38:33;;;;;;;;;;;;;;;;;;5048315;28;19928;-64
2022/01/30 03:41:00;;;;;;;;;;;;;;;;;;5045577;28;19951;-64
2022/01/30 03:43:27;;;;;;;;;;;;;;;;;;5048866;28;20345;-64
2022/01/30 03:45:54;;;;;;;;;;;;;;;;;;5040525;28;19925;-64
2022/01/30 03:48:20;;;;;;;;;;;;;;;;;;5044003;28;20397;-64
2022/01/30 03:50:47;;;;;;;;;;;;;;;;;;5048008;28;19940;-64
2022/01/30 03:53:14;;;;;;;;;;;;;;;;;;5049593;28;19932;-64
2022/01/30 03:55:41;;;;;;;;;;;;;;;;;;5044982;28;19947;-64
2022/01/30 03:58:08;;;;;;;;;;;;;;;;;;5045183;28;19940;-64
2022/01/30 04:00:35;;;;;;;;;;;;;;;;;;5049974;28;19960;-64
2022/01/30 04:03:02;;;;;;;;;;;;;;;;;;5043962;28;19947;-64
2022/01/30 04:05:29;;;;;;;;;;;;;;;;;;5048132;28;19929;-64
2022/01/30 04:07:56;;;;;;;;;;;;;;;;;;5052477;28;20395;-64
2022/01/30 04:10:23;;;;;;;;;;;;;;;;;;5047295;28;19943;-64
2022/01/30 04:12:50;;;;;;;;;;;;;;;;;;5044173;28;19929;-64
2022/01/30 04:15:17;;;;;;;;;;;;;;;;;;5039067;28;20015;-64
2022/01/30 04:17:43;;;;;;;;;;;;;;;;;;5046516;28;20341;-64
2022/01/30 04:20:10;;;;;;;;;;;;;;;;;;5049110;28;19928;-64
2022/01/30 04:22:37;;;;;;;;;;;;;;;;;;5041688;28;20402;-64
2022/01/30 04:25:04;;;;;;;;;;;;;;;;;;5044758;28;19925;-64
2022/01/30 04:27:31;;;;;;;;;;;;;;;;;;5047545;28;19929;-64
2022/01/30 04:29:58;;;;;;;;;;;;;;;;;;5046575;28;19931;-64
2022/01/30 04:32:26;;;;;;;;;;;;;;;;;;5046863;28;19924;-64
2022/01/30 04:34:57;;;;;;;;;;;;;;;;;;5048355;28;19932;-64
2022/01/30 04:37:30;;;;;;;;;;;;;;;;;;5043324;28;19979;-64
2022/01/30 04:40:31;;;;;;;;;;;;;;;;;;5037439;28;19925;-64
2022/01/30 04:54:37;;;;;;;;;;;;;;;;;;5042936;28;19920;-64
2022/01/30 04:57:00;;;;;;;;;;;;;;;;;;5044810;28;19982;-64
2022/01/30 04:59:48;;;;;;;;;;;;;;;;;;5042240;28;20398;-64
2022/01/30 05:02:35;;;;;;;;;;;;;;;;;;5044782;28;19924;-65
2022/01/30 05:05:24;;;;;;;;;;;;;;;;;;5047514;28;20007;-65
2022/01/30 05:07:51;;;;;;;;;;;;;;;;;;5045031;28;19932;-65
2022/01/30 05:10:18;;;;;;;;;;;;;;;;;;5045704;28;19932;-65
2022/01/30 05:12:49;;;;;;;;;;;;;;;;;;5042823;28;20043;-65
2022/01/30 05:15:17;;;;;;;;;;;;;;;;;;5042240;28;19925;-63
2022/01/30 05:17:44;;;;;;;;;;;;;;;;;;5037993;28;19931;-63
2022/01/30 05:20:11;;;;;;;;;;;;;;;;;;5047727;28;20490;-64
2022/01/30 05:22:40;;;;;;;;;;;5.70;99.90;;;;;;5046697;28;19931;-64
2022/01/30 05:25:08;;;;;;;;;;;5.80;99.90;;;;;;5039535;28;19925;-64
2022/01/30 05:27:35;;;;;;;;;;;5.80;99.90;;;;;;5044342;28;20374;-64
2022/01/30 05:30:02;;;;;;;;;;;5.80;99.90;;;;;;5045654;28;19936;-64
2022/01/30 05:32:29;;;;;;;;;;;5.70;99.90;;;;;;5041536;28;19924;-64
2022/01/30 05:34:56;;;;;;;;;;;5.70;99.90;;;;;;5045607;28;19932;-64
2022/01/30 05:37:22;;;;;;;;;;;5.50;99.90;;;;;;5039440;28;19976;-64
2022/01/30 05:39:51;;;;;;;;;;;5.50;99.90;;;;;;5045650;28;19933;-64
2022/01/30 05:42:19;;;;;;;;;;;5.40;99.90;;;;;;5043828;28;19924;-64
2022/01/30 05:44:54;;;;;;;;;;;5.40;99.90;;;;;;5041815;28;19964;-64
2022/01/30 05:47:26;;;;;;;;;;;5.30;99.90;;;;;;5045210;28;20426;-64
2022/01/30 05:49:52;;;;;;;;;;;5.20;99.90;;;;;;5047500;28;19960;-64
2022/01/30 05:52:21;;;;;;;;;;;5.20;99.90;;;;;;5038680;28;19925;-64
2022/01/30 05:54:48;;;;;;;;;;;5.10;99.90;;;;;;5044460;28;19929;-64
2022/01/30 05:57:16;;;;;;;;;;;5.10;99.90;;;;;;5039237;28;19924;-64
2022/01/30 05:59:43;;;;;;;;;;;5.10;99.90;;;;;;5045597;28;19925;-64
2022/01/30 06:02:09;;;;;;;;;;;5.00;99.90;;;;;;5037640;28;19925;-64
2022/01/30 06:04:36;;;;;;;;;;;5.00;99.90;;;;;;5045847;28;19929;-64
2022/01/30 06:07:03;;;;;;;;;;;5.00;99.90;;;;;;5041935;28;19931;-64
2022/01/30 06:09:29;;;;;;;;;;;4.90;99.90;;;;;;5045793;28;19925;-64
2022/01/30 06:11:56;;;;;;;;;;;4.90;99.90;;;;;;5042769;28;20000;-64
2022/01/30 06:14:24;;;;;;;;;;;4.90;99.90;;;;;;5043795;28;19928;-64
2022/01/30 06:16:53;;;;;;;;;;;4.90;99.90;;;;;;5047018;28;19932;-64
2022/01/30 06:19:19;;;;;;;;;;;4.90;99.90;;;;;;5046105;28;19959;-64
2022/01/30 06:21:46;;;;;;;;;;;4.90;99.90;;;;;;5050421;28;20399;-64
2022/01/30 06:24:12;;;;;;;;;;;4.80;99.90;;;;;;5033546;28;19928;-64
2022/01/30 06:26:39;;;;;;;;;;;4.90;99.90;;;;;;5044627;28;19932;-64
2022/01/30 06:29:06;;;;;;;;;;;4.80;99.90;;;;;;5050165;28;19948;-64
2022/01/30 06:31:34;;;;;;;;;;;4.80;99.90;;;;;;5045155;28;19933;-64
2022/01/30 06:34:00;;;;;;;;;;;4.80;99.90;;;;;;5049905;28;20316;-64
2022/01/30 06:36:27;;;;;;;;;;;4.80;99.90;;;;;;5040262;28;20398;-64
2022/01/30 06:38:53;;;;;;;;;;;4.80;99.90;;;;;;5047038;28;19929;-64
2022/01/30 06:41:20;;;;;;;;;;;4.80;99.90;;;;;;5045352;28;19931;-64
2022/01/30 06:43:47;;;;;;;;;;;4.80;99.90;;;;;;5048742;28;20382;-64
2022/01/30 06:46:15;;;;;;;;;;;4.80;99.90;;;;;;5045429;28;19932;-64
2022/01/30 06:48:43;;;;;;;;;;;4.80;99.90;;;;;;5047915;28;20023;-64
2022/01/30 06:51:09;;;;;;;;;;;4.80;99.90;;;;;;5045058;28;19936;-64
2022/01/30 06:53:36;;;;;;;;;;;4.80;99.90;;;;;;5047986;28;19925;-64
2022/01/30 06:56:03;;;;;;;;;;;4.70;99.90;;;;;;5037925;28;19933;-64
2022/01/30 06:58:29;;;;;;;;;;;4.70;99.90;;;;;;5051459;28;19967;-64
2022/01/30 07:00:56;;;;;;;;;;;4.70;99.90;;;;;;5049541;28;19929;-64
2022/01/30 07:03:22;;;;;;;;;;;4.70;99.90;;;;;;5043928;28;19943;-65
2022/01/30 07:05:50;;;;;;;;;;;4.60;99.90;;;;;;5048359;28;19924;-64
2022/01/30 07:08:17;;;;;;;;;;;4.60;99.90;;;;;;5042895;28;19929;-65
2022/01/30 07:10:45;;;;;;;;;;;4.60;99.90;;;;;;5047046;28;19925;-65
2022/01/30 07:13:12;;;;;;;;;;;4.60;99.90;;;;;;5040960;28;19925;-65
2022/01/30 07:15:41;;;;;;;;;;;4.60;99.90;;;;;;5048284;28;20003;-65
2022/01/30 07:18:07;;;;;;;;;;;4.50;99.90;;;;;;5045907;28;19927;-64
2022/01/30 07:20:34;;;;;;;;;;;4.60;99.90;;;;;;5049805;28;20275;-65
2022/01/30 07:23:02;;;;;;;;;;;4.50;99.90;;;;;;5045000;28;19931;-65
2022/01/30 07:25:29;;;;;;;;;;;4.60;99.90;;;;;;5044123;28;19925;-65
2022/01/30 07:27:55;;;;;;;;;;;4.60;99.90;;;;;;5043111;28;19925;-65
2022/01/30 07:30:22;;;;;;;;;;;4.60;99.90;;;;;;5046139;28;19933;-65
2022/01/30 07:32:48;;;;;;;;;;;4.60;99.90;;;;;;5049698;28;19925;-65
2022/01/30 07:35:17;;;;;;;;;;;4.60;99.90;;;;;;5060372;22;19929;-67
2022/01/30 07:37:43;;;;;;;;;;;4.60;99.90;;;;;;5031673;28;20109;-67
2022/01/30 07:40:13;;;;;;;;;;;4.60;99.90;;;;;;5035556;28;19996;-68
2022/01/30 07:42:39;;;;;;;;;;;4.70;99.90;;;;;;5030791;28;19976;-67
2022/01/30 07:45:06;;;;;;;;;;;4.70;99.90;;;;;;5032196;28;20323;-67
2022/01/30 07:47:33;;;;;;;;;;;4.80;99.90;;;;;;5018964;28;20294;-67
2022/01/30 07:50:00;;;;;;;;;;;4.80;99.90;;;;;;5028353;28;19925;-67
2022/01/30 07:52:26;;;;;;;;;;;4.90;99.90;;;;;;5026550;28;19925;-67
2022/01/30 07:54:53;;;;;;;;;;;4.90;99.90;;;;;;5032120;28;19932;-67
2022/01/30 07:57:22;;;;;;;;;;;4.90;99.90;;;;;;5029857;28;19937;-67
2022/01/30 07:59:49;;;;;;;;;;;5.00;99.90;;;;;;5024803;28;19980;-67
2022/01/30 08:02:15;;;;;;;;;;;5.10;99.90;;;;;;5034073;28;20406;-67
2022/01/30 08:04:42;;;;;;;;;;;5.40;99.90;;;;;;5026818;28;19933;-67
2022/01/30 08:07:08;;;;;;;;;;;5.80;99.90;;;;;;5026986;28;20383;-67
2022/01/30 08:09:35;;;;;;;;;;;5.90;99.90;;;;;;5023934;28;20292;-67
2022/01/30 08:12:01;;;;;;;;;;;5.80;99.90;;;;;;5030945;28;19925;-67
2022/01/30 08:14:29;;;;;;;;;;;5.70;99.90;;;;;;5025511;28;19929;-67
2022/01/30 08:16:56;;;;;;;;;;;5.70;99.90;;;;;;5032106;28;19930;-67
2022/01/30 08:19:24;;;;;;;;;;;5.60;99.90;;;;;;5022785;28;19932;-68
2022/01/30 08:21:51;;;;;;;;;;;5.60;99.90;;;;;;5028416;28;19929;-67
2022/01/30 08:24:19;;;;;;;;;;;5.60;99.90;;;;;;5026174;28;19925;-67
2022/01/30 08:26:46;;;;;;;;;;;5.70;99.90;;;;;;5037466;28;20011;-67
2022/01/30 08:29:12;;;;;;;;;;;5.80;99.90;;;;;;5019876;28;20395;-67
2022/01/30 08:31:40;;;;;;;;;;;6.10;99.90;;;;;;5021662;28;20392;-67
2022/01/30 08:34:07;;;;;;;;;;;6.30;99.90;;;;;;5023531;28;19926;-67
2022/01/30 08:36:33;;;;;;;;;;;6.40;99.90;;;;;;5021208;28;19926;-67
2022/01/30 08:39:00;;;;;;;;;;;6.50;99.90;;;;;;5029308;28;19931;-67
2022/01/30 08:41:26;;;;;;;;;;;6.60;99.90;;;;;;5018990;28;19925;-67
2022/01/30 08:43:53;;;;;;;;;;;6.60;99.90;;;;;;5018629;28;20046;-67
2022/01/30 08:46:20;;;;;;;;;;;6.50;99.90;;;;;;5033653;28;19925;-68
2022/01/30 08:48:47;;;;;;;;;;;;;;;;;;5024269;28;20008;-66
2022/01/30 08:51:14;;;;;;;;;;;;;;;;;;5017127;28;19926;-67
2022/01/30 08:53:41;;;;;;;;;;;;;;;;;;5020868;28;19926;-66
2022/01/30 08:56:08;;;;;;;;;;;;;;;;;;5027231;28;19967;-67
2022/01/30 08:58:35;;;;;;;;;;;;;;;;;;5019134;28;19933;-67
2022/01/30 09:01:01;;;;;;;;;;;;;;;;;;5019052;28;20438;-67
2022/01/30 09:03:28;;;;;;;;;;;;;;;;;;5019285;28;19929;-68
2022/01/30 09:05:55;;;;;;;;;;;;;;;;;;5028833;28;19929;-67
2022/01/30 09:08:22;;;;;;;;;;;;;;;;;;5022573;28;19933;-68
2022/01/30 09:10:49;;;;;;;;;;;;;;;;;;5022900;28;19925;-68
2022/01/30 09:13:16;;;;;;;;;;;;;;;;;;5026793;28;19925;-70
2022/01/30 09:15:43;;;;;;;;;;;;;;;;;;5026268;28;19925;-68
2022/01/30 09:18:10;;;;;;;;;;;;;;;;;;5014436;28;20398;-68
2022/01/30 09:20:37;;;;;;;;;;;;;;;;;;5022997;28;19964;-68
2022/01/30 09:23:04;;;;;;;;;;;;;;;;;;5032839;28;19929;-68
2022/01/30 09:25:31;;;;;;;;;;;;;;;;;;5022720;28;19929;-67
2022/01/30 09:27:58;;;;;;;;;;;;;;;;;;5039297;28;19932;-69
2022/01/30 09:30:25;;;;;;;;;;;;;;;;;;5025408;28;19937;-67
2022/01/30 09:32:52;;;;;;;;;;;;;;;;;;5032974;28;19944;-67
2022/01/30 09:35:19;;;;;;;;;;;;;;;;;;5016427;28;19926;-68
2022/01/30 09:37:46;;;;;;;;;;;;;;;;;;5027019;28;19925;-68
2022/01/30 09:40:14;;;;;;;;;;;;;;;;;;5021145;28;19931;-68
2022/01/30 09:42:42;;;;;;;;;;;;;;;;;;5031198;28;19929;-67
2022/01/30 09:45:10;;;;;;;;;;;;;;;;;;5027173;28;19932;-68
2022/01/30 09:47:37;;;;;;;;;;;;;;;;;;5016862;28;20276;-68
2022/01/30 09:50:04;;;;;;;;;;;;;;;;;;5021575;28;19925;-66
2022/01/30 09:52:31;;;;;;;;;;;;;;;;;;5039305;28;19925;-67
2022/01/30 09:54:58;;;;;;;;;;;;;;;;;;5024390;28;19932;-69
2022/01/30 09:57:25;;;;;;;;;;;;;;;;;;5029334;28;19932;-68
2022/01/30 09:59:51;;;;;;;;;;;;;;;;;;5026083;28;19925;-68
2022/01/30 10:02:20;;;;;;;;;;;;;;;;;;5023387;28;19925;-68
2022/01/30 10:04:47;;;;;;;;;;;;;;;;;;5020864;28;19933;-68
2022/01/30 10:07:16;;;;;;;;;;;;;;;;;;5032967;28;20303;-68
2022/01/30 10:09:48;;;;;;;;;;;;;;;;;;5021293;28;19930;-68
2022/01/30 10:12:19;;;;;;;;;;;;;;;;;;5023573;28;19925;-68
2022/01/30 10:14:46;;;;;;;;;;;;;;;;;;5021717;28;19925;-68
2022/01/30 10:17:13;;;;;;;;;;;;;;;;;;5018732;28;19926;-68
2022/01/30 10:19:40;;;;;;;;;;;;;;;;;;5018310;28;19937;-68
2022/01/30 10:22:07;;;;;;;;;;;;;;;;;;5036833;28;19925;-68
2022/01/30 10:24:34;;;;;;;;;;;;;;;;;;5017192;28;19933;-66
2022/01/30 10:27:03;;;;;;;;;;;;;;;;;;5019785;28;19948;-68
2022/01/30 10:29:31;;;;;;;;;;;;;;;;;;5022134;28;19929;-70
2022/01/30 10:31:58;;;;;;;;;;;;;;;;;;5018227;28;20421;-68
2022/01/30 10:34:26;;;;;;;;;;;;;;;;;;5030425;28;19932;-68
2022/01/30 10:36:53;;;;;;;;;;;;;;;;;;5023370;28;19925;-67
2022/01/30 10:39:23;;;;;;;;;;;;;;;;;;5026121;28;19948;-68
2022/01/30 10:41:56;;;;;;;;;;;;;;;;;;5016042;28;19948;-67
2022/01/30 10:44:23;;;;;;;;;;;;;;;;;;5023998;28;19925;-69
2022/01/30 10:46:51;;;;;;;;;;;;;;;;;;5020152;28;19932;-68
2022/01/30 10:49:18;;;;;;;;;;;;;;;;;;5015216;28;20445;-65
2022/01/30 10:51:45;;;;;;;;;;;;;;;;;;5024831;28;19987;-65
2022/01/30 10:54:12;;;;;;;;;;;;;;;;;;5019207;28;19936;-65
2022/01/30 10:56:39;;;;;;;;;;;;;;;;;;5033213;28;19925;-65
2022/01/30 10:59:06;;;;;;;;;;;;;;;;;;5018211;28;19934;-65
2022/01/30 11:01:33;;;;;;;;;;;;;;;;;;5027867;28;19929;-64
2022/01/30 11:04:01;;;;;;;;;;;;;;;;;;5020999;28;19926;-67
2022/01/30 11:06:27;;;;;;;;;;;;;;;;;;5024878;28;20402;-68
2022/01/30 11:08:55;;;;;;;;;;;;;;;;;;5028244;28;19925;-68
2022/01/30 11:11:30;;;;;;;;;;;;;;;;;;5021982;28;19929;-68
2022/01/30 11:14:16;;;;;;;;;;;;;;;;;;5022827;28;20215;-68
2022/01/30 11:19:27;;;;;;;;;;;;;;;;;;5015369;28;20063;-68
2022/01/30 11:21:55;;;;;;;;;;;;;;;;;;5023785;28;19931;-68
2022/01/30 11:24:22;;;;;;;;;;;;;;;;;;5024432;28;20478;-68
2022/01/30 11:26:49;;;;;;;;;;;;;;;;;;5027050;28;19934;-68
2022/01/30 11:29:16;;;;;;;;;;;;;;;;;;5012966;28;19925;-69
2022/01/30 11:31:43;;;;;;;;;;;;;;;;;;5020312;28;20359;-68
2022/01/30 11:34:10;;;;;;;;;;;;;;;;;;5018307;28;20025;-67
2022/01/30 11:36:37;;;;;;;;;;;;;;;;;;5028725;28;20395;-67
2022/01/30 11:39:04;;;;;;;;;;;;;;;;;;5020954;28;19929;-67
2022/01/30 11:41:34;;;;;;;;;;;;;;;;;;5007923;28;19926;-66
2022/01/30 11:44:01;;;;;;;;;;;;;;;;;;5019141;28;19925;-67
2022/01/30 11:46:28;;;;;;;;;;;;;;;;;;5026520;28;19925;-67
2022/01/30 11:48:55;;;;;;;;;;;;;;;;;;5029265;28;19983;-67
2022/01/30 11:51:21;;;;;;;;;;;;;;;;;;5022997;28;20351;-67
2022/01/30 11:53:48;;;;;;;;;;;;;;;;;;5028538;28;19929;-68
2022/01/30 11:56:15;;;;;;;;;;;;;;;;;;5032555;28;19925;-67
2022/01/30 11:58:42;;;;;;;;;;;;;;;;;;5022740;28;19925;-67
2022/01/30 12:01:09;;;;;;;;;;;;;;;;;;5027838;28;20346;-67
2022/01/30 12:03:36;;;;;;;;;;;;;;;;;;5025486;28;19938;-67
2022/01/30 12:06:03;;;;;;;;;;;;;;;;;;5031823;28;19948;-68
2022/01/30 12:08:30;;;;;;;;;;;;;;;;;;5027729;28;19947;-68
2022/01/30 12:10:57;;;;;;;;;;;;;;;;;;5029173;28;19925;-69
2022/01/30 12:13:24;;;;;;;;;;;;;;;;;;5022117;28;20023;-68
2022/01/30 12:15:51;;;;;;;;;;;;;;;;;;5021968;28;20056;-68
2022/01/30 12:18:18;;;;;;;;;;;;;;;;;;5016712;28;19952;-68
2022/01/30 12:20:45;;;;;;;;;;;;;;;;;;5023773;28;19979;-69
2022/01/30 12:23:12;;;;;;;;;;;;;;;;;;5019286;28;19931;-69
2022/01/30 12:25:39;;;;;;;;;;;;;;;;;;5022611;28;19932;-70
2022/01/30 12:28:06;;;;;;;;;;;;;;;;;;5027218;28;20028;-70
2022/01/30 12:30:33;;;;;;;;;;;;;;;;;;5027725;28;19936;-70
2022/01/30 12:33:00;;;;;;;;;;;;;;;;;;5016959;28;19929;-68
2022/01/30 12:35:27;;;;;;;;;;;;;;;;;;5023255;28;19929;-70
2022/01/30 12:37:54;;;;;;;;;;;;;;;;;;5026975;28;19929;-68
2022/01/30 12:40:21;;;;;;;;;;;;;;;;;;5024334;28;19951;-68
2022/01/30 12:42:48;;;;;;;;;;;;;;;;;;5019198;28;19937;-69
2022/01/30 12:45:15;;;;;;;;;;;;;;;;;;5013568;28;19929;-67
2022/01/30 12:47:42;;;;;;;;;;;;;;;;;;5023099;28;19925;-68
2022/01/30 12:50:10;;;;;;;;;;;;;;;;;;5020437;28;19936;-68
2022/01/30 12:52:37;;;;;;;;;;;;;;;;;;5025454;28;20019;-68
2022/01/30 12:55:09;;;;;;;;;;;;;;;;;;5023933;28;20390;-69
2022/01/30 12:57:36;;;;;;;;;;;;;;;;;;5026704;28;19933;-69
2022/01/30 13:00:03;;;;;;;;;;;;;;;;;;5027720;28;19935;-69
2022/01/30 13:02:30;;;;;;;;;;;;;;;;;;5025698;28;19926;-68
2022/01/30 13:04:57;;;;;;;;;;;;;;;;;;5031532;28;20019;-68
2022/01/30 13:07:24;;;;;;;;;;;;;;;;;;5026590;28;19967;-68
2022/01/30 13:09:51;;;;;;;;;;;;;;;;;;5021224;28;20378;-69
2022/01/30 13:12:18;;;;;;;;;;;;;;;;;;5022199;28;19936;-67
2022/01/30 13:14:45;;;;;;;;;;;;;;;;;;5025571;28;19929;-70
2022/01/30 13:17:12;;;;;;;;;;;;;;;;;;5022933;28;20046;-69
2022/01/30 13:19:39;;;;;;;;;;;;;;;;;;5018960;28;19932;-68
2022/01/30 13:22:06;;;;;;;;;;;;;;;;;;5022010;28;19934;-68
2022/01/30 13:24:33;;;;;;;;;;;;;;;;;;5013239;28;19925;-68
2022/01/30 13:27:01;;;;;;;;;;;;;;;;;;5027431;28;20315;-68
2022/01/30 13:29:30;;;;;;;;;;;;;;;;;;5024831;28;19929;-68
2022/01/30 13:31:59;;;;;;;;;;;;;;;;;;5029107;28;20445;-68
2022/01/30 13:34:26;;;;;;;;;;;;;;;;;;5024179;28;19933;-68
2022/01/30 13:36:54;;;;;;;;;;;;;;;;;;5023597;28;19987;-68
2022/01/30 13:39:26;;;;;;;;;;;;;;;;;;5015139;28;19937;-68
2022/01/30 13:42:02;;;;;;;;;;;;;;;;;;5010966;28;19944;-69
2022/01/30 13:44:29;;;;;;;;;;;;;;;;;;5025177;28;19936;-68
2022/01/30 13:47:02;;;;;;;;;;;;;;;;;;5019472;28;19929;-68
2022/01/30 13:49:29;;;;;;;;;;;;;;;;;;5017680;28;19922;-68
2022/01/30 13:51:56;;;;;;;;;;;;;;;;;;5021896;28;19925;-68
2022/01/30 13:54:23;;;;;;;;;;;;;;;;;;5027864;28;19929;-68
2022/01/30 13:56:50;;;;;;;;;;;;;;;;;;5025177;28;19932;-67
2022/01/30 13:59:17;;;;;;;;;;;;;;;;;;5019061;28;19941;-67
2022/01/30 14:01:44;;;;;;;;;;;;;;;;;;5025590;28;19984;-69
2022/01/30 14:04:12;;;;;;;;;;;;;;;;;;5026326;28;19932;-69
2022/01/30 14:06:38;;;;;;;;;;;;;;;;;;5030604;28;19949;-69
2022/01/30 14:09:05;;;;;;;;;;;;;;;;;;5025834;28;19926;-69
2022/01/30 14:11:32;;;;;;;;;;;;;;;;;;5016519;28;19932;-69
2022/01/30 14:13:59;;;;;;;;;;;;;;;;;;5021099;28;19945;-69
2022/01/30 14:16:26;;;;;;;;;;;;;;;;;;5016903;28;20015;-68
2022/01/30 14:18:55;;;;;;;;;;;;;;;;;;5020729;28;19925;-69
2022/01/30 14:21:22;;;;;;;;;;;;;;;;;;5012954;28;19930;-68
2022/01/30 14:23:49;;;;;;;;;;;;;;;;;;5031739;28;20028;-69
2022/01/30 14:26:16;;;;;;;;;;;;;;;;;;5024767;28;20025;-69
2022/01/30 14:28:43;;;;;;;;;;;;;;;;;;5020999;28;19925;-69
2022/01/30 14:31:10;;;;;;;;;;;;;;;;;;5024234;28;20020;-69
2022/01/30 14:33:37;;;;;;;;;;;;;;;;;;5025117;28;20299;-69
2022/01/30 14:36:06;;;;;;;;;;;;;;;;;;5022404;28;19929;-69
2022/01/30 14:38:33;;;;;;;;;;;;;;;;;;5021787;28;19987;-69
2022/01/30 14:41:01;;;;;;;;;;;;;;;;;;5020975;28;19924;-68
2022/01/30 14:43:28;;;;;;;;;;;;;;;;;;5013377;28;19940;-68
2022/01/30 14:45:55;;;;;;;;;;;;;;;;;;5014995;28;20363;-69
2022/01/30 14:48:22;;;;;;;;;;;;;;;;;;5025482;28;20308;-68
2022/01/30 14:50:48;;;;;;;;;;;;;;;;;;5013164;28;19933;-69
2022/01/30 14:53:15;;;;;;;;;;;;;;;;;;5014057;28;19936;-68
2022/01/30 14:55:43;;;;;;;;;;;;;;;;;;5025814;28;19925;-68
2022/01/30 14:58:12;;;;;;;;;;;;;;;;;;5019018;28;19947;-68
2022/01/30 15:00:39;;;;;;;;;;;;;;;;;;5024843;28;19949;-68
2022/01/30 15:03:06;;;;;;;;;;;;;;;;;;5022188;28;19929;-68
2022/01/30 15:05:33;;;;;;;;;;;;;;;;;;5024047;28;19933;-68
2022/01/30 15:08:01;;;;;;;;;;;;;;;;;;5021676;28;20379;-68
2022/01/30 15:10:28;;;;;;;;;;;;;;;;;;5018620;28;20436;-68
2022/01/30 15:12:55;;;;;;;;;;;;;;;;;;5027932;28;19932;-68
2022/01/30 15:15:24;;;;;;;;;;;;;;;;;;5022619;28;19972;-68
2022/01/30 15:17:52;;;;;;;;;;;;;;;;;;5022331;28;19933;-68
2022/01/30 15:20:19;;;;;;;;;;;;;;;;;;5022671;28;19951;-68
2022/01/30 15:22:47;;;;;;;;;;;;;;;;;;5019389;28;20368;-68
2022/01/30 15:25:14;;;;;;;;;;;;;;;;;;5031214;28;19926;-68
2022/01/30 15:27:41;;;;;;;;;;;;;;;;;;5022356;28;20414;-67
2022/01/30 15:30:07;;;;;;;;;;;;;;;;;;5036428;28;19936;-68
2022/01/30 15:32:35;;;;;;;;;;;;;;;;;;5022275;28;19933;-69
2022/01/30 15:35:02;;;;;;;;;;;;;;;;;;5035388;28;19968;-69
2022/01/30 15:37:29;;;;;;;;;;;;;;;;;;5025013;28;19929;-68
2022/01/30 15:39:56;;;;;;;;;;;;;;;;;;5024289;28;19926;-68
2022/01/30 15:42:22;;;;;;;;;;;;;;;;;;5021860;28;19925;-68
2022/01/30 15:50:19;;;;;;;;;;;;;;;;;;5029606;28;20394;-69
2022/01/30 15:52:45;;;;;;;;;;;;;;;;;;5019639;28;19925;-70
2022/01/30 15:55:12;;;;;;;;;;;;;;;;;;5017954;28;19932;-69
2022/01/30 15:57:39;;;;;;;;;;;;;;;;;;5023378;28;19931;-69
2022/01/30 16:00:06;;;;;;;;;;;;;;;;;;5023815;28;19926;-69
2022/01/30 16:02:33;;;;;;;;;;;;;;;;;;5019240;28;20376;-68
2022/01/30 16:05:00;;;;;;;;;;;;;;;;;;5025954;28;19925;-69
2022/01/30 16:07:27;;;;;;;;;;;;;;;;;;5023267;28;20418;-68
2022/01/30 16:09:59;;;;;;;;;;;;;;;;;;5013227;28;19945;-69
2022/01/30 16:12:50;;;;;;;;;;;;;;;;;;5014533;28;19929;-69
2022/01/30 16:18:02;;;;;;;;;;;;;;;;;;5015242;28;20003;-69
2022/01/30 16:20:29;;;;;;;;;;;;;;;;;;5014845;28;19930;-69
2022/01/30 16:22:56;;;;;;;;;;;;;;;;;;5023728;28;19926;-69
2022/01/30 16:25:22;;;;;;;;;;;;;;;;;;5024984;28;19925;-68
2022/01/30 16:27:49;;;;;;;;;;;;;;;;;;5022084;28;19951;-69
2022/01/30 16:30:16;;;;;;;;;;;;;;;;;;5025639;28;20354;-68
2022/01/30 16:32:43;;;;;;;;;;;;;;;;;;5024036;28;19936;-68
2022/01/30 16:35:11;;;;;;;;;;;;;;;;;;5025326;28;19925;-68
2022/01/30 16:37:39;;;;;;;;;;;;;;;;;;5021737;28;20033;-68
2022/01/30 16:40:05;;;;;;;;;;;;;;;;;;5021930;28;19933;-69
2022/01/30 16:42:34;;;;;;;;;;;;;;;;;;5024641;28;19925;-68
2022/01/30 16:45:09;;;;;;;;;;;;;;;;;;5019599;28;20032;-69
2022/01/30 16:47:36;;;;;;;;;;;;;;;;;;5008556;28;19944;-69
2022/01/30 16:50:03;;;;;;;;;;;;;;;;;;5016382;28;19932;-69
2022/01/30 16:52:30;;;;;;;;;;;;;;;;;;5022061;28;19972;-69
2022/01/30 16:54:57;;;;;;;;;;;;;;;;;;5016354;28;19930;-69
2022/01/30 16:57:23;;;;;;;;;;;;;;;;;;5019389;28;20383;-67
2022/01/30 16:59:50;;;;;;;;;;;;;;;;;;5023114;28;19925;-67